createdAt,value
2022-12-28T00:01:44.272Z,6.76
2022-12-28T00:03:47.055Z,6.73
2022-12-28T00:05:52.208Z,6.71
2022-12-28T00:07:54.236Z,6.77
2022-12-28T00:09:58.719Z,6.62
2022-12-28T00:12:04.015Z,6.50
2022-12-28T00:14:06.351Z,6.50
2022-12-28T00:16:11.148Z,6.51
2022-12-28T00:18:13.015Z,6.43
2022-12-28T00:20:15.286Z,6.43
2022-12-28T00:22:17.617Z,6.43
2022-12-28T00:24:22.314Z,6.41
2022-12-28T00:26:24.714Z,6.48
2022-12-28T00:28:26.853Z,6.51
2022-12-28T00:30:29.078Z,6.52
2022-12-28T00:32:32.934Z,6.47
2022-12-28T00:34:35.037Z,6.37
2022-12-28T00:37:08.659Z,6.35
2022-12-28T00:38:59.462Z,6.47
2022-12-28T00:41:01.721Z,6.52
2022-12-28T00:43:03.983Z,6.56
2022-12-28T00:45:06.687Z,6.47
2022-12-28T00:47:08.908Z,6.54
2022-12-28T00:49:14.305Z,6.50
2022-12-28T00:51:18.382Z,6.51
2022-12-28T00:53:21.460Z,6.53
2022-12-28T00:55:23.803Z,6.56
2022-12-28T00:57:28.171Z,6.61
2022-12-28T00:59:31.060Z,6.61
2022-12-28T01:01:35.141Z,6.59
2022-12-28T01:03:37.483Z,6.61
2022-12-28T01:05:40.231Z,6.63
2022-12-28T01:07:43.858Z,6.61
2022-12-28T01:09:46.027Z,6.63
2022-12-28T01:11:48.193Z,6.65
2022-12-28T01:13:52.383Z,6.61
2022-12-28T01:15:54.423Z,6.71
2022-12-28T01:17:56.341Z,6.69
2022-12-28T01:19:58.463Z,6.59
2022-12-28T01:22:01.185Z,6.53
2022-12-28T01:24:05.766Z,6.52
2022-12-28T01:26:08.451Z,6.63
2022-12-28T01:28:10.862Z,6.57
2022-12-28T01:30:16.035Z,6.58
2022-12-28T01:32:18.015Z,6.67
2022-12-28T01:34:23.099Z,6.57
2022-12-28T01:36:27.502Z,6.56
2022-12-28T01:38:29.722Z,6.54
2022-12-28T01:40:31.712Z,6.51
2022-12-28T01:42:40.060Z,6.40
2022-12-28T01:44:47.162Z,6.47
2022-12-28T01:47:04.516Z,6.46
2022-12-28T01:49:17.308Z,6.45
2022-12-28T01:51:23.045Z,6.47
2022-12-28T01:53:25.293Z,6.49
2022-12-28T01:55:33.132Z,6.45
2022-12-28T01:57:43.720Z,6.48
2022-12-28T01:59:54.992Z,6.51
2022-12-28T02:01:57.690Z,6.59
2022-12-28T02:04:00.252Z,6.60
2022-12-28T02:06:07.113Z,6.60
2022-12-28T02:08:41.517Z,6.56
2022-12-28T02:10:45.991Z,6.60
2022-12-28T02:12:50.392Z,6.61
2022-12-28T02:14:53.361Z,6.58
2022-12-28T02:16:55.837Z,6.43
2022-12-28T02:18:58.086Z,6.51
2022-12-28T02:21:38.012Z,6.50
2022-12-28T02:24:10.940Z,6.49
2022-12-28T02:26:34.735Z,6.36
2022-12-28T02:29:07.653Z,6.30
2022-12-28T02:31:37.356Z,6.33
2022-12-28T02:34:02.531Z,6.35
2022-12-28T02:36:18.093Z,6.38
2022-12-28T02:38:28.591Z,6.39
2022-12-28T02:40:42.299Z,6.38
2022-12-28T02:42:46.290Z,6.43
2022-12-28T02:45:07.028Z,6.38
2022-12-28T02:47:34.630Z,6.26
2022-12-28T02:49:55.385Z,6.29
2022-12-28T02:52:22.315Z,6.17
2022-12-28T02:55:04.469Z,6.03
2022-12-28T02:57:51.024Z,5.91
2022-12-28T03:00:17.050Z,5.95
2022-12-28T03:02:40.749Z,5.92
2022-12-28T03:04:49.058Z,5.96
2022-12-28T03:07:43.506Z,5.94
2022-12-28T03:10:12.364Z,5.86
2022-12-28T03:12:22.293Z,5.85
2022-12-28T03:14:29.077Z,5.78
2022-12-28T03:17:04.783Z,5.71
2022-12-28T03:19:28.241Z,5.67
2022-12-28T03:21:55.271Z,5.74
2022-12-28T03:24:18.209Z,5.68
2022-12-28T03:26:42.481Z,5.74
2022-12-28T03:29:05.283Z,5.73
2022-12-28T03:31:20.734Z,5.61
2022-12-28T03:33:28.423Z,5.64
2022-12-28T03:36:02.862Z,5.59
2022-12-28T03:38:05.535Z,5.60
2022-12-28T03:40:18.234Z,5.56
2022-12-28T03:42:46.984Z,5.50
2022-12-28T03:44:55.823Z,5.50
2022-12-28T03:47:09.369Z,5.48
2022-12-28T03:49:12.311Z,5.45
2022-12-28T03:51:16.835Z,5.42
2022-12-28T03:53:24.663Z,5.37
2022-12-28T03:55:30.446Z,5.35
2022-12-28T03:57:33.115Z,5.27
2022-12-28T03:59:36.749Z,5.29
2022-12-28T04:01:41.002Z,5.30
2022-12-28T04:03:43.778Z,5.24
2022-12-28T04:05:45.797Z,5.24
2022-12-28T04:07:47.948Z,5.21
2022-12-28T04:09:50.091Z,5.18
2022-12-28T04:11:52.724Z,5.06
2022-12-28T04:14:10.662Z,5.04
2022-12-28T04:16:17.377Z,5.11
2022-12-28T04:18:20.032Z,5.12
2022-12-28T04:20:23.047Z,5.15
2022-12-28T04:22:27.234Z,5.10
2022-12-28T04:24:29.255Z,5.11
2022-12-28T04:26:31.718Z,5.07
2022-12-28T04:28:34.323Z,4.98
2022-12-28T04:30:54.903Z,4.93
2022-12-28T04:32:57.681Z,4.90
2022-12-28T04:34:59.855Z,4.89
2022-12-28T04:37:05.673Z,4.87
2022-12-28T04:39:07.703Z,4.90
2022-12-28T04:41:11.636Z,4.77
2022-12-28T04:43:13.881Z,4.75
2022-12-28T04:45:21.801Z,4.71
2022-12-28T04:47:24.395Z,4.67
2022-12-28T04:49:26.536Z,4.64
2022-12-28T04:51:29.849Z,4.58
2022-12-28T04:53:32.115Z,4.51
2022-12-28T04:55:34.699Z,4.56
2022-12-28T04:57:36.748Z,4.54
2022-12-28T04:59:40.595Z,4.47
2022-12-28T05:01:43.270Z,4.43
2022-12-28T05:03:55.494Z,4.29
2022-12-28T05:06:07.932Z,4.35
2022-12-28T05:08:10.097Z,4.49
2022-12-28T05:10:12.645Z,4.37
2022-12-28T05:12:14.835Z,4.41
2022-12-28T05:14:16.836Z,4.36
2022-12-28T05:16:22.296Z,4.33
2022-12-28T05:18:24.269Z,4.33
2022-12-28T05:20:26.341Z,4.23
2022-12-28T05:22:29.960Z,4.19
2022-12-28T05:24:32.407Z,4.24
2022-12-28T05:26:35.897Z,4.26
2022-12-28T05:28:38.109Z,4.28
2022-12-28T05:30:40.146Z,4.24
2022-12-28T05:32:42.399Z,4.17
2022-12-28T05:35:49.980Z,4.06
2022-12-28T05:37:52.919Z,4.09
2022-12-28T05:39:54.884Z,4.13
2022-12-28T05:42:00.338Z,4.10
2022-12-28T05:44:02.895Z,4.09
2022-12-28T05:46:07.564Z,4.13
2022-12-28T05:48:09.753Z,4.19
2022-12-28T05:50:12.087Z,4.21
2022-12-28T05:52:14.316Z,4.22
2022-12-28T05:54:17.466Z,4.11
2022-12-28T05:56:24.907Z,4.14
2022-12-28T05:58:27.092Z,4.19
2022-12-28T06:00:29.170Z,4.18
2022-12-28T06:02:31.673Z,4.09
2022-12-28T06:04:33.947Z,4.15
2022-12-28T06:06:36.595Z,4.07
2022-12-28T06:08:39.368Z,4.11
2022-12-28T06:10:44.297Z,4.14
2022-12-28T06:12:46.466Z,4.09
2022-12-28T06:14:48.501Z,4.11
2022-12-28T06:16:51.727Z,4.04
2022-12-28T06:18:53.968Z,4.04
2022-12-28T06:21:05.832Z,4.06
2022-12-28T06:23:08.155Z,3.97
2022-12-28T06:25:10.814Z,4.03
2022-12-28T06:27:13.213Z,4.06
2022-12-28T06:29:15.285Z,4.06
2022-12-28T06:31:20.372Z,4.04
2022-12-28T06:33:24.200Z,4.10
2022-12-28T06:35:28.877Z,4.15
2022-12-28T06:37:30.981Z,4.12
2022-12-28T06:39:33.588Z,4.19
2022-12-28T06:41:36.539Z,4.13
2022-12-28T06:43:39.992Z,4.07
2022-12-28T06:45:56.581Z,4.02
2022-12-28T06:48:01.384Z,4.13
2022-12-28T06:50:04.675Z,4.16
2022-12-28T06:52:06.874Z,4.16
2022-12-28T06:54:10.096Z,4.24
2022-12-28T06:56:15.719Z,4.23
2022-12-28T06:58:17.723Z,4.21
2022-12-28T07:00:22.716Z,4.27
2022-12-28T07:02:25.180Z,4.26
2022-12-28T07:04:27.547Z,4.26
2022-12-28T07:06:33.544Z,4.30
2022-12-28T07:08:35.762Z,4.40
2022-12-28T07:10:37.944Z,4.37
2022-12-28T07:12:40.053Z,4.44
2022-12-28T07:14:42.207Z,4.49
2022-12-28T07:16:44.298Z,4.63
2022-12-28T07:18:47.452Z,4.70
2022-12-28T07:20:49.510Z,4.76
2022-12-28T07:22:51.845Z,4.91
2022-12-28T07:24:53.972Z,4.99
2022-12-28T07:26:56.061Z,5.00
2022-12-28T07:29:00.124Z,5.08
2022-12-28T07:31:06.984Z,5.23
2022-12-28T07:33:12.367Z,5.25
2022-12-28T07:35:14.660Z,5.40
2022-12-28T07:37:16.820Z,5.49
2022-12-28T07:39:18.833Z,5.51
2022-12-28T07:41:23.735Z,5.64
2022-12-28T07:43:25.723Z,5.74
2022-12-28T07:45:27.822Z,5.72
2022-12-28T07:47:30.049Z,5.84
2022-12-28T07:49:32.543Z,5.90
2022-12-28T07:51:37.072Z,6.04
2022-12-28T07:53:40.580Z,6.05
2022-12-28T07:55:43.837Z,6.16
2022-12-28T07:57:46.126Z,6.27
2022-12-28T07:59:48.181Z,6.29
2022-12-28T08:01:51.316Z,6.47
2022-12-28T08:03:55.895Z,6.48
2022-12-28T08:06:09.247Z,6.47
2022-12-28T08:08:11.210Z,6.51
2022-12-28T08:10:13.446Z,6.53
2022-12-28T08:12:15.526Z,6.62
2022-12-28T08:14:17.944Z,6.59
2022-12-28T08:16:21.518Z,6.58
2022-12-28T08:18:27.499Z,6.65
2022-12-28T08:20:32.452Z,6.54
2022-12-28T08:22:34.597Z,6.65
2022-12-28T08:24:36.704Z,6.73
2022-12-28T08:26:40.485Z,6.79
2022-12-28T08:28:45.003Z,6.80
2022-12-28T08:30:49.649Z,6.92
2022-12-28T08:32:51.991Z,6.87
2022-12-28T08:34:56.683Z,7.01
2022-12-28T08:36:58.813Z,7.06
2022-12-28T08:39:04.564Z,7.19
2022-12-28T08:41:09.469Z,7.10
2022-12-28T08:43:11.786Z,7.25
2022-12-28T08:45:14.242Z,7.38
2022-12-28T08:47:16.348Z,7.40
2022-12-28T08:49:18.536Z,7.48
2022-12-28T08:51:31.345Z,7.45
2022-12-28T08:53:34.064Z,7.48
2022-12-28T08:55:40.269Z,7.52
2022-12-28T08:57:42.515Z,7.53
2022-12-28T08:59:45.086Z,7.62
2022-12-28T09:01:47.816Z,7.63
2022-12-28T09:03:52.909Z,7.68
2022-12-28T09:05:55.013Z,7.74
2022-12-28T09:07:59.733Z,7.79
2022-12-28T09:10:04.236Z,7.74
2022-12-28T09:12:07.603Z,7.79
2022-12-28T09:14:17.150Z,7.82
2022-12-28T09:16:29.096Z,7.84
2022-12-28T09:18:31.739Z,7.92
2022-12-28T09:20:35.208Z,7.94
2022-12-28T09:22:37.293Z,7.94
2022-12-28T09:24:39.206Z,7.97
2022-12-28T09:26:41.346Z,7.99
2022-12-28T09:29:04.674Z,7.92
2022-12-28T09:31:08.973Z,8.04
2022-12-28T09:33:29.695Z,8.06
2022-12-28T09:35:31.719Z,8.10
2022-12-28T09:37:34.176Z,8.19
2022-12-28T09:39:47.896Z,8.19
2022-12-28T09:41:56.112Z,8.14
2022-12-28T09:44:15.642Z,8.15
2022-12-28T09:46:20.584Z,8.22
2022-12-28T09:48:26.689Z,8.21
2022-12-28T09:50:30.482Z,8.18
2022-12-28T09:52:55.813Z,8.22
2022-12-28T09:55:22.049Z,8.24
2022-12-28T09:57:28.943Z,8.34
2022-12-28T09:59:36.078Z,8.34
2022-12-28T10:01:40.398Z,8.38
2022-12-28T10:03:45.569Z,8.40
2022-12-28T10:05:48.353Z,8.46
2022-12-28T10:07:52.515Z,8.51
2022-12-28T10:09:55.435Z,8.58
2022-12-28T10:12:01.234Z,8.61
2022-12-28T10:14:16.834Z,8.61
2022-12-28T10:16:20.803Z,8.69
2022-12-28T10:18:26.430Z,8.75
2022-12-28T10:20:28.563Z,8.80
2022-12-28T10:22:40.730Z,8.83
2022-12-28T10:24:46.330Z,8.92
2022-12-28T10:26:52.251Z,8.97
2022-12-28T10:28:59.846Z,9.02
2022-12-28T10:31:08.217Z,9.05
2022-12-28T10:33:16.360Z,9.14
2022-12-28T10:35:26.915Z,9.18
2022-12-28T10:37:35.222Z,9.23
2022-12-28T10:39:37.666Z,9.33
2022-12-28T10:41:41.308Z,9.34
2022-12-28T10:44:08.578Z,9.35
2022-12-28T10:46:23.133Z,9.35
2022-12-28T10:48:39.442Z,9.47
2022-12-28T10:50:58.640Z,9.44
2022-12-28T10:53:00.797Z,9.51
2022-12-28T10:55:08.531Z,9.57
2022-12-28T10:57:21.845Z,9.59
2022-12-28T10:59:32.379Z,9.63
2022-12-28T11:01:34.944Z,9.65
2022-12-28T11:03:38.950Z,9.66
2022-12-28T11:05:41.001Z,9.80
2022-12-28T11:07:45.657Z,9.85
2022-12-28T11:09:47.826Z,9.86
2022-12-28T11:11:52.486Z,9.81
2022-12-28T11:14:21.332Z,9.79
2022-12-28T11:16:23.606Z,9.76
2022-12-28T11:18:26.234Z,9.82
2022-12-28T11:20:41.766Z,9.87
2022-12-28T11:22:44.437Z,9.89
2022-12-28T11:24:46.625Z,9.95
2022-12-28T11:26:50.800Z,9.97
2022-12-28T11:28:54.103Z,9.96
2022-12-28T11:30:57.418Z,9.95
2022-12-28T11:33:02.461Z,9.99
2022-12-28T11:35:07.876Z,10.05
2022-12-28T11:37:16.322Z,10.10
2022-12-28T11:39:27.276Z,10.10
2022-12-28T11:41:33.980Z,10.07
2022-12-28T11:43:42.038Z,10.03
2022-12-28T11:45:55.840Z,10.01
2022-12-28T11:48:47.153Z,10.02
2022-12-28T11:50:52.204Z,10.15
2022-12-28T11:52:54.283Z,10.17
2022-12-28T11:54:59.117Z,10.21
2022-12-28T11:57:01.139Z,10.24
2022-12-28T11:59:06.868Z,10.21
2022-12-28T12:01:29.259Z,10.21
2022-12-28T12:03:59.221Z,10.17
2022-12-28T12:06:01.888Z,10.22
2022-12-28T12:11:58.931Z,10.14
2022-12-28T12:14:01.942Z,10.20
2022-12-28T12:16:08.374Z,10.19
2022-12-28T12:18:19.951Z,10.17
2022-12-28T12:21:03.251Z,10.15
2022-12-28T12:23:21.671Z,10.15
2022-12-28T12:25:29.399Z,10.18
2022-12-28T12:27:36.795Z,10.15
2022-12-28T12:29:44.279Z,10.08
2022-12-28T12:31:54.007Z,10.09
2022-12-28T12:34:03.827Z,10.11
2022-12-28T12:36:43.022Z,10.04
2022-12-28T12:39:12.272Z,10.01
2022-12-28T12:41:23.361Z,10.07
2022-12-28T12:43:47.578Z,10.08
2022-12-28T12:46:20.368Z,10.01
2022-12-28T12:48:39.735Z,10.08
2022-12-28T12:51:00.414Z,9.97
2022-12-28T12:53:17.285Z,10.05
2022-12-28T12:55:42.478Z,10.06
2022-12-28T12:57:53.654Z,10.04
2022-12-28T13:00:18.647Z,10.05
2022-12-28T13:02:45.258Z,10.10
2022-12-28T13:04:47.701Z,10.13
2022-12-28T13:06:59.185Z,10.08
2022-12-28T13:09:05.993Z,10.14
2022-12-28T13:11:10.463Z,10.14
2022-12-28T13:13:21.918Z,10.12
2022-12-28T13:15:24.173Z,10.13
2022-12-28T13:17:30.403Z,10.16
2022-12-28T13:19:32.522Z,10.13
2022-12-28T13:21:49.274Z,10.05
2022-12-28T13:23:52.623Z,10.13
2022-12-28T13:25:58.038Z,10.08
2022-12-28T13:28:02.982Z,10.07
2022-12-28T13:30:05.893Z,10.10
2022-12-28T13:32:30.407Z,10.01
2022-12-28T13:34:37.805Z,10.06
2022-12-28T13:36:54.517Z,9.98
2022-12-28T13:39:13.017Z,9.97
2022-12-28T13:41:24.597Z,9.95
2022-12-28T13:43:54.531Z,9.93
2022-12-28T13:46:08.119Z,9.97
2022-12-28T13:48:10.398Z,9.98
2022-12-28T13:50:24.256Z,9.89
2022-12-28T13:52:50.487Z,9.88
2022-12-28T13:54:58.660Z,9.86
2022-12-28T13:57:28.343Z,9.88
2022-12-28T13:59:23.625Z,9.80
2022-12-28T14:01:31.891Z,9.83
2022-12-28T14:03:41.409Z,9.75
2022-12-28T14:05:52.014Z,9.69
2022-12-28T14:07:56.571Z,9.72
2022-12-28T14:09:59.291Z,9.68
2022-12-28T14:12:01.347Z,9.66
2022-12-28T14:14:04.613Z,9.63
2022-12-28T14:16:08.519Z,9.64
2022-12-28T14:18:15.717Z,9.61
2022-12-28T14:20:18.762Z,9.63
2022-12-28T14:22:36.548Z,9.58
2022-12-28T14:25:02.465Z,9.55
2022-12-28T14:27:04.651Z,9.55
2022-12-28T14:29:20.032Z,9.50
2022-12-28T14:31:27.086Z,9.47
2022-12-28T14:33:33.118Z,9.44
2022-12-28T14:35:35.807Z,9.42
2022-12-28T14:37:40.718Z,9.42
2022-12-28T14:39:45.471Z,9.39
2022-12-28T14:41:47.945Z,9.36
2022-12-28T14:43:55.811Z,9.36
2022-12-28T14:48:37.600Z,9.35
2022-12-28T14:50:57.277Z,9.27
2022-12-28T14:53:20.087Z,9.22
2022-12-28T14:56:11.619Z,9.26
2022-12-28T14:58:24.300Z,9.19
2022-12-28T15:00:25.624Z,9.35
2022-12-28T15:00:33.544Z,9.28
2022-12-28T15:02:35.842Z,9.26
2022-12-28T15:04:42.066Z,9.21
2022-12-28T15:06:44.479Z,9.19
2022-12-28T15:08:51.311Z,9.21
2022-12-28T15:10:59.094Z,9.17
2022-12-28T15:13:01.306Z,9.12
2022-12-28T15:15:03.533Z,9.07
2022-12-28T15:17:06.838Z,9.05
2022-12-28T15:19:08.979Z,9.02
2022-12-28T15:21:20.285Z,8.98
2022-12-28T15:23:22.719Z,8.92
2022-12-28T15:25:25.016Z,8.87
2022-12-28T15:27:27.338Z,8.81
2022-12-28T15:30:03.818Z,8.80
2022-12-28T15:31:51.974Z,8.75
2022-12-28T15:33:54.010Z,8.72
2022-12-28T15:36:03.449Z,8.52
2022-12-28T15:38:05.674Z,8.52
2022-12-28T15:40:08.694Z,8.49
2022-12-28T15:42:10.962Z,8.49
2022-12-28T15:44:18.983Z,8.42
2022-12-28T15:46:21.462Z,8.42
2022-12-28T15:48:23.859Z,8.35
2022-12-28T15:50:26.001Z,8.36
2022-12-28T15:52:28.321Z,8.30
2022-12-28T15:54:30.404Z,8.28
2022-12-28T15:56:35.203Z,8.28
2022-12-28T15:58:37.714Z,8.22
2022-12-28T16:00:47.381Z,8.18
2022-12-28T16:02:49.965Z,8.17
2022-12-28T16:04:52.206Z,8.15
2022-12-28T16:06:54.318Z,8.11
2022-12-28T16:08:58.416Z,8.07
2022-12-28T16:11:18.230Z,7.96
2022-12-28T16:13:20.236Z,7.94
2022-12-28T16:15:22.252Z,7.92
2022-12-28T16:17:24.371Z,7.91
2022-12-28T16:19:26.497Z,7.89
2022-12-28T16:21:29.221Z,7.82
2022-12-28T16:23:40.198Z,7.79
2022-12-28T16:25:50.578Z,7.73
2022-12-28T16:27:52.741Z,7.64
2022-12-28T16:29:58.764Z,7.62
2022-12-28T16:32:01.773Z,7.57
2022-12-28T16:34:09.944Z,7.57
2022-12-28T16:36:12.598Z,7.55
2022-12-28T16:38:16.457Z,7.53
2022-12-28T16:40:18.574Z,7.52
2022-12-28T16:42:20.616Z,7.52
2022-12-28T16:44:24.850Z,7.50
2022-12-28T16:46:27.096Z,7.51
2022-12-28T16:48:32.142Z,7.51
2022-12-28T16:50:34.474Z,7.52
2022-12-28T16:52:36.521Z,7.50
2022-12-28T16:54:38.714Z,7.51
2022-12-28T16:56:41.055Z,7.52
2022-12-28T16:58:48.810Z,7.46
2022-12-28T17:00:51.299Z,7.43
2022-12-28T17:02:53.561Z,7.44
2022-12-28T17:04:55.636Z,7.45
2022-12-28T17:06:58.048Z,7.42
2022-12-28T17:09:04.418Z,7.36
2022-12-28T17:11:11.003Z,7.27
2022-12-28T17:13:13.142Z,7.31
2022-12-28T17:15:15.368Z,7.33
2022-12-28T17:17:18.466Z,7.34
2022-12-28T17:19:21.742Z,7.31
2022-12-28T17:21:23.775Z,7.28
2022-12-28T17:23:25.893Z,7.28
2022-12-28T17:25:28.298Z,7.28
2022-12-28T17:27:30.744Z,7.25
2022-12-28T17:29:32.922Z,7.23
2022-12-28T17:31:35.231Z,7.22
2022-12-28T17:33:40.104Z,7.19
2022-12-28T17:35:42.503Z,7.16
2022-12-28T17:37:44.966Z,7.12
2022-12-28T17:39:47.372Z,7.11
2022-12-28T17:41:49.730Z,7.05
2022-12-28T17:43:54.989Z,7.04
2022-12-28T17:45:57.746Z,7.04
2022-12-28T17:47:59.986Z,7.04
2022-12-28T17:50:02.333Z,6.93
2022-12-28T17:52:04.583Z,6.95
2022-12-28T17:54:06.721Z,6.91
2022-12-28T17:56:12.797Z,6.90
2022-12-28T17:58:15.330Z,6.86
2022-12-28T18:00:17.985Z,6.86
2022-12-28T18:02:20.316Z,6.84
2022-12-28T18:04:23.140Z,6.81
2022-12-28T18:06:26.031Z,6.79
2022-12-28T18:08:28.854Z,6.74
2022-12-28T18:10:31.016Z,6.72
2022-12-28T18:12:33.418Z,6.72
2022-12-28T18:14:35.897Z,6.63
2022-12-28T18:16:41.629Z,6.59
2022-12-28T18:18:44.280Z,6.54
2022-12-28T18:20:57.065Z,6.49
2022-12-28T18:22:59.334Z,6.42
2022-12-28T18:25:01.573Z,6.42
2022-12-28T18:27:03.818Z,6.38
2022-12-28T18:29:06.980Z,6.32
2022-12-28T18:31:09.694Z,6.27
2022-12-28T18:33:11.861Z,6.19
2022-12-28T18:35:14.016Z,6.26
2022-12-28T18:37:16.217Z,6.24
2022-12-28T18:39:18.654Z,6.27
2022-12-28T18:41:27.704Z,6.26
2022-12-28T18:43:32.721Z,6.23
2022-12-28T18:45:34.990Z,6.16
2022-12-28T18:47:37.364Z,6.09
2022-12-28T18:49:43.864Z,6.05
2022-12-28T18:51:50.361Z,6.04
2022-12-28T18:53:52.792Z,6.04
2022-12-28T18:56:03.395Z,6.01
2022-12-28T18:58:05.582Z,6.01
2022-12-28T19:00:09.733Z,6.02
2022-12-28T19:02:17.487Z,5.99
2022-12-28T19:04:22.012Z,5.97
2022-12-28T19:06:26.905Z,5.89
2022-12-28T19:08:29.396Z,5.92
2022-12-28T19:10:31.402Z,5.92
2022-12-28T19:12:33.535Z,5.90
2022-12-28T19:14:35.728Z,5.90
2022-12-28T19:16:38.417Z,5.87
2022-12-28T19:18:40.481Z,5.85
2022-12-28T19:20:42.711Z,5.87
2022-12-28T19:22:44.587Z,5.85
2022-12-28T19:24:46.618Z,5.82
2022-12-28T19:26:49.003Z,5.77
2022-12-28T19:28:52.146Z,5.78
2022-12-28T19:30:57.029Z,5.71
2022-12-28T19:33:01.538Z,5.71
2022-12-28T19:35:03.774Z,5.67
2022-12-28T19:37:07.096Z,5.66
2022-12-28T19:39:09.365Z,5.66
2022-12-28T19:41:15.729Z,5.66
2022-12-28T19:43:18.336Z,5.66
2022-12-28T19:45:23.148Z,5.62
2022-12-28T19:47:25.479Z,5.63
2022-12-28T19:49:27.416Z,5.59
2022-12-28T19:51:32.169Z,5.55
2022-12-28T19:53:35.110Z,5.48
2022-12-28T19:55:37.405Z,5.42
2022-12-28T19:57:39.846Z,5.31
2022-12-28T19:59:41.823Z,5.24
2022-12-28T20:01:44.056Z,5.26
2022-12-28T20:03:46.874Z,5.31
2022-12-28T20:05:49.279Z,5.34
2022-12-28T20:07:51.164Z,5.34
2022-12-28T20:09:53.320Z,5.33
2022-12-28T20:11:55.394Z,5.32
2022-12-28T20:13:59.768Z,5.23
2022-12-28T20:16:01.908Z,5.22
2022-12-28T20:18:04.248Z,5.18
2022-12-28T20:20:06.574Z,5.09
2022-12-28T20:22:08.547Z,5.06
2022-12-28T20:24:12.914Z,5.04
2022-12-28T20:26:15.626Z,4.96
2022-12-28T20:32:16.832Z,4.85
2022-12-28T20:34:19.039Z,4.87
2022-12-28T20:36:23.556Z,4.82
2022-12-28T20:38:29.820Z,4.83
2022-12-28T20:40:31.874Z,4.80
2022-12-28T20:42:52.434Z,4.79
2022-12-28T20:44:57.698Z,4.72
2022-12-28T20:47:02.838Z,4.69
2022-12-28T20:49:06.775Z,4.68
2022-12-28T20:51:09.530Z,4.71
2022-12-28T20:53:11.635Z,4.71
2022-12-28T20:55:14.435Z,4.74
2022-12-28T20:57:16.610Z,4.72
2022-12-28T20:59:18.774Z,4.73
2022-12-28T21:01:21.432Z,4.75
2022-12-28T21:03:23.574Z,4.74
2022-12-28T21:05:25.605Z,4.66
2022-12-28T21:07:28.426Z,4.58
2022-12-28T21:09:31.072Z,4.59
2022-12-28T21:11:33.593Z,4.66
2022-12-28T21:13:39.405Z,4.65
2022-12-28T21:15:46.157Z,4.70
2022-12-28T21:17:48.447Z,4.74
2022-12-28T21:19:51.274Z,4.73
2022-12-28T21:21:53.226Z,4.70
2022-12-28T21:23:55.280Z,4.68
2022-12-28T21:26:02.448Z,4.71
2022-12-28T21:28:05.147Z,4.66
2022-12-28T21:30:07.920Z,4.69
2022-12-28T21:32:10.290Z,4.72
2022-12-28T21:34:12.928Z,4.64
2022-12-28T21:36:16.343Z,4.71
2022-12-28T21:38:21.244Z,4.73
2022-12-28T21:40:23.484Z,4.78
2022-12-28T21:42:25.545Z,4.80
2022-12-28T21:44:28.349Z,4.82
2022-12-28T21:46:32.792Z,4.80
2022-12-28T21:48:36.539Z,4.75
2022-12-28T21:50:38.518Z,4.78
2022-12-28T21:52:40.805Z,4.79
2022-12-28T21:54:43.207Z,4.76
2022-12-28T21:56:52.303Z,4.77
2022-12-28T21:58:55.021Z,4.79
2022-12-28T22:01:18.176Z,4.77
2022-12-28T22:03:39.126Z,4.72
2022-12-28T22:05:59.733Z,4.76
2022-12-28T22:11:49.291Z,4.82
2022-12-28T22:13:51.589Z,4.78
2022-12-28T22:15:57.281Z,4.73
2022-12-28T22:18:06.256Z,4.73
2022-12-28T22:20:11.995Z,4.78
2022-12-28T22:22:14.067Z,4.80
2022-12-28T22:24:16.723Z,4.84
2022-12-28T22:26:18.868Z,4.84
2022-12-28T22:28:21.227Z,4.78
2022-12-28T22:30:24.116Z,4.68
2022-12-28T22:32:26.189Z,4.64
2022-12-28T22:34:28.396Z,4.64
2022-12-28T22:36:31.093Z,4.64
2022-12-28T22:38:33.074Z,4.69
2022-12-28T22:40:37.963Z,4.68
2022-12-28T22:42:44.595Z,4.65
2022-12-28T22:44:46.768Z,4.66
2022-12-28T22:46:49.164Z,4.62
2022-12-28T22:48:51.348Z,4.66
2022-12-28T22:50:56.924Z,4.66
2022-12-28T22:53:02.114Z,4.63
2022-12-28T22:55:04.913Z,4.64
2022-12-28T22:57:07.340Z,4.60
2022-12-28T22:59:15.435Z,4.60
2022-12-28T23:01:19.452Z,4.57
2022-12-28T23:03:21.581Z,4.58
2022-12-28T23:05:23.908Z,4.55
2022-12-28T23:07:25.914Z,4.49
2022-12-28T23:09:28.139Z,4.50
2022-12-28T23:11:42.017Z,4.48
2022-12-28T23:13:44.211Z,4.44
2022-12-28T23:15:55.453Z,4.41
2022-12-28T23:18:17.548Z,4.50
2022-12-28T23:20:38.357Z,4.46
2022-12-28T23:23:12.674Z,4.41
2022-12-28T23:25:36.380Z,4.43
2022-12-28T23:27:41.169Z,4.37
2022-12-28T23:29:43.480Z,4.42
2022-12-28T23:31:45.520Z,4.40
2022-12-28T23:33:47.567Z,4.39
2022-12-28T23:35:49.596Z,4.40
2022-12-28T23:37:52.659Z,4.36
2022-12-28T23:39:54.934Z,4.41
2022-12-28T23:41:56.984Z,4.35
2022-12-28T23:44:02.228Z,4.38
2022-12-28T23:46:05.524Z,4.36
2022-12-28T23:48:07.768Z,4.31
2022-12-28T23:50:11.146Z,4.20
2022-12-28T23:52:13.328Z,4.17
2022-12-28T23:54:18.148Z,4.09
2022-12-28T23:56:20.264Z,4.06
2022-12-28T23:58:22.204Z,4.06
